Airports

 

 

Airport Name Latest METAR Visual Conditions
Kansas City International Airport (MCI) KMCI 281853Z 19011KT 10SM SCT160 31/14 A2989 RMK AO2 SLP109 T03110139
VFR
St. Louis-Lambert International Airport (STL) KSTL 281851Z 32004KT 10SM CLR 32/14 A2992 RMK AO2 SLP121 T03220144
VFR
Tulsa International Airport (TUL) KTUL 281853Z 18013G18KT 10SM FEW065 FEW250 32/17 A2986 RMK AO2 SLP101 T03220167
VFR
Wichita Dwight D. Eisenhower National Airport (ICT) KICT 281853Z 13013KT 10SM SCT220 33/13 A2983 RMK AO2 SLP087 T03280133
VFR
Springfield-Branson National Airport (SGF) KSGF 281852Z 14012KT 10SM CLR 29/15 A2994 RMK AO2 SLP126 T02940150
VFR
Abraham Lincoln Capital Airport (SPI) KSPI 281852Z 09006KT 10SM CLR 29/17 A2992 RMK AO2 SLP128 T02890172
VFR